Time;durP1;ratioP1;P1;durP2;ratioP2;P2;SDS_P1;SDS_P2;PMS_P1;PMS_P2;Temp;Humidity;BMP_temperature;BMP_pressure;BME280_temperature;BME280_humidity;BME280_pressure;Samples;Min_cycle;Max_cycle;Signal;HPM_P1;HPM_P2
2024/01/06 00:01:17;;;;;;;183.00;66.27;;;;;;;;;;5056231;28;20456;-66
2024/01/06 00:03:44;;;;;;;189.43;67.93;;;;;;;;;;5041148;28;20397;-66
2024/01/06 00:06:12;;;;;;;189.90;69.33;;;;;;;;;;5056445;28;20766;-66
2024/01/06 00:08:39;;;;;;;188.37;67.43;;;;;;;;;;5073665;28;20429;-66
2024/01/06 00:11:07;;;;;;;179.13;67.57;;;;;;;;;;5055985;28;20497;-67
2024/01/06 00:13:34;;;;;;;188.97;70.93;;;;;;;;;;5073680;28;20804;-66
2024/01/06 00:16:01;;;;;;;183.30;67.07;;;;;;;;;;5073624;28;20489;-66
2024/01/06 00:18:28;;;;;;;175.67;68.57;;;;;;;;;;5073668;28;20511;-66
2024/01/06 00:20:56;;;;;;;178.30;69.07;;;;;;;;;;5055613;28;20440;-67
2024/01/06 00:23:23;;;;;;;184.37;71.77;;;;;;;;;;5073574;28;20451;-66
2024/01/06 00:25:50;;;;;;;179.33;68.43;;;;;;;;;;5073817;28;20415;-67
2024/01/06 00:28:17;;;;;;;180.00;68.20;;;;;;;;;;5073844;28;20449;-66
2024/01/06 00:30:44;;;;;;;195.77;70.53;;;;;;;;;;5077803;28;20428;-67
2024/01/06 00:33:11;;;;;;;184.67;70.47;;;;;;;;;;5078420;28;20827;-67
2024/01/06 00:35:38;;;;;;;186.33;71.87;;;;;;;;;;5077529;28;20440;-66
2024/01/06 00:38:05;;;;;;;181.90;69.83;;;;;;;;;;5077799;28;20747;-66
2024/01/06 00:40:32;;;;;;;184.67;69.97;;;;;;;;;;5077747;28;20420;-67
2024/01/06 00:43:17;;;;;;;166.40;67.23;;;;;;;;;;5062057;28;20393;-66
2024/01/06 00:45:44;;;;;;;182.47;69.80;;;;;;;;;;5077392;28;20416;-66
2024/01/06 00:48:11;;;;;;;180.70;68.03;;;;;;;;;;5059378;28;20452;-67
2024/01/06 00:50:38;;;;;;;183.90;70.60;;;;;;;;;;5076965;28;20424;-67
2024/01/06 00:53:04;;;;;;;189.03;70.27;;;;;;;;;;5077208;28;20431;-66
2024/01/06 00:55:31;;;;;;;177.27;66.97;;;;;;;;;;5092913;28;20431;-67
2024/01/06 00:57:59;;;;;;;180.47;67.60;;;;;;;;;;5076767;28;20937;-67
2024/01/06 01:00:27;;;;;;;171.17;68.63;;;;;;;;;;5059612;28;20816;-67
2024/01/06 01:02:54;;;;;;;175.40;69.20;;;;;;;;;;5076976;28;20444;-66
2024/01/06 01:05:21;;;;;;;184.03;70.50;;;;;;;;;;5077000;28;20498;-67
2024/01/06 01:07:48;;;;;;;190.77;70.93;;;;;;;;;;5076863;28;20763;-66
2024/01/06 01:10:15;;;;;;;192.13;73.20;;;;;;;;;;5059002;28;20459;-67
2024/01/06 01:12:42;;;;;;;182.23;71.30;;;;;;;;;;5076449;28;20906;-67
2024/01/06 01:51:05;;;;;;;90.77;34.10;;;;;;;;;;5055944;28;20875;-67
2024/01/06 01:53:32;;;;;;;104.33;43.37;;;;;;;;;;5037922;28;20520;-66
2024/01/06 01:56:16;;;;;;;108.97;42.13;;;;;;;;;;5056306;28;20876;-67
2024/01/06 01:58:43;;;;;;;139.07;56.00;;;;;;;;;;5055881;28;20409;-67
2024/01/06 02:01:10;;;;;;;130.73;51.80;;;;;;;;;;5037943;28;20512;-67
2024/01/06 02:03:38;;;;;;;87.70;37.80;;;;;;;;;;5038369;28;20466;-67
2024/01/06 02:06:05;;;;;;;165.63;62.20;;;;;;;;;;5021558;28;20433;-67
2024/01/06 02:08:32;;;;;;;166.97;61.53;;;;;;;;;;5037865;28;20486;-67
2024/01/06 02:10:59;;;;;;;150.47;61.53;;;;;;;;;;5037744;28;20429;-67
2024/01/06 02:13:35;;;;;;;149.50;57.10;;;;;;;;;;5038608;28;20788;-67
2024/01/06 02:16:03;;;;;;;103.93;42.13;;;;;;;;;;5021536;28;20392;-67
2024/01/06 02:18:30;;;;;;;46.67;21.10;;;;;;;;;;5055537;28;20800;-67
2024/01/06 02:20:58;;;;;;;21.77;9.13;;;;;;;;;;5055627;28;20471;-67
2024/01/06 02:23:26;;;;;;;10.57;5.40;;;;;;;;;;5056001;28;20511;-67
2024/01/06 02:25:53;;;;;;;10.87;4.87;;;;;;;;;;5037612;28;20502;-67
2024/01/06 02:28:20;;;;;;;13.20;4.87;;;;;;;;;;5055292;28;20520;-67
2024/01/06 02:31:04;;;;;;;8.03;4.03;;;;;;;;;;5055321;28;20495;-67
2024/01/06 02:33:32;;;;;;;7.33;3.67;;;;;;;;;;5037719;28;20429;-67
2024/01/06 02:35:59;;;;;;;7.27;3.80;;;;;;;;;;5037450;28;20446;-67
2024/01/06 02:38:26;;;;;;;6.97;4.23;;;;;;;;;;5037286;28;20510;-67
2024/01/06 02:40:53;;;;;;;7.37;3.80;;;;;;;;;;5054873;28;20430;-67
2024/01/06 02:43:21;;;;;;;7.83;4.23;;;;;;;;;;5037180;28;20508;-67
2024/01/06 02:45:49;;;;;;;7.87;3.97;;;;;;;;;;5054948;28;20429;-67
2024/01/06 02:48:16;;;;;;;6.60;2.43;;;;;;;;;;5037257;28;20459;-67
2024/01/06 02:50:44;;;;;;;6.33;3.10;;;;;;;;;;5073245;28;20460;-67
2024/01/06 02:53:12;;;;;;;7.53;3.20;;;;;;;;;;5073639;28;20428;-67
2024/01/06 02:55:39;;;;;;;5.87;3.10;;;;;;;;;;5039909;28;20482;-67
2024/01/06 02:58:06;;;;;;;5.37;2.77;;;;;;;;;;5073992;28;20448;-67
2024/01/06 03:00:33;;;;;;;5.87;2.97;;;;;;;;;;5073734;28;20424;-67
2024/01/06 03:03:00;;;;;;;7.47;3.63;;;;;;;;;;5056996;28;20541;-67
2024/01/06 03:05:27;;;;;;;6.63;3.07;;;;;;;;;;5056179;28;20435;-67
2024/01/06 03:07:54;;;;;;;10.13;3.80;;;;;;;;;;5056489;28;20741;-67
2024/01/06 03:10:22;;;;;;;6.83;3.50;;;;;;;;;;5055867;28;20440;-67
2024/01/06 03:12:49;;;;;;;9.27;3.90;;;;;;;;;;5055749;28;20762;-67
2024/01/06 03:15:16;;;;;;;7.10;3.73;;;;;;;;;;5089229;28;20523;-67
2024/01/06 03:17:43;;;;;;;8.53;3.90;;;;;;;;;;5056135;28;20459;-67
2024/01/06 03:20:11;;;;;;;8.37;4.13;;;;;;;;;;5055527;28;20487;-67
2024/01/06 03:22:38;;;;;;;7.23;3.37;;;;;;;;;;5055641;28;20484;-67
2024/01/06 03:25:06;;;;;;;6.33;3.57;;;;;;;;;;5073268;28;20435;-67
2024/01/06 03:27:33;;;;;;;9.13;3.83;;;;;;;;;;5052149;28;20827;-67
2024/01/06 03:30:00;;;;;;;10.93;3.50;;;;;;;;;;5093591;28;20426;-67
2024/01/06 03:32:28;;;;;;;5.87;2.83;;;;;;;;;;5075373;28;20435;-67
2024/01/06 03:34:56;;;;;;;4.43;2.27;;;;;;;;;;5058889;28;20436;-67
2024/01/06 03:37:23;;;;;;;3.13;1.80;;;;;;;;;;5075368;28;20419;-67
2024/01/06 03:39:50;;;;;;;1.87;1.00;;;;;;;;;;5058731;28;20526;-67
2024/01/06 03:42:18;;;;;;;2.23;1.13;;;;;;;;;;5093058;28;20881;-67
2024/01/06 03:44:45;;;;;;;1.33;0.90;;;;;;;;;;5075434;28;20420;-67
2024/01/06 03:47:12;;;;;;;3.73;1.10;;;;;;;;;;5075408;28;20969;-67
2024/01/06 03:49:56;;;;;;;1.77;0.93;;;;;;;;;;5030797;28;1407432;-67
2024/01/06 03:52:24;;;;;;;2.37;1.40;;;;;;;;;;5089936;28;20276;-67
2024/01/06 03:54:51;;;;;;;4.80;1.80;;;;;;;;;;5094430;28;20436;-67
2024/01/06 03:57:19;;;;;;;3.20;1.57;;;;;;;;;;5076259;28;20439;-67
2024/01/06 03:59:47;;;;;;;3.53;1.60;;;;;;;;;;5093729;28;20423;-67
2024/01/06 04:02:14;;;;;;;3.60;1.63;;;;;;;;;;5093836;28;20455;-67
2024/01/06 04:04:41;;;;;;;2.07;1.50;;;;;;;;;;5075757;28;21005;-67
2024/01/06 04:07:08;;;;;;;3.40;2.00;;;;;;;;;;5076001;28;20914;-67
2024/01/06 04:09:36;;;;;;;3.53;1.90;;;;;;;;;;5094499;28;20407;-67
2024/01/06 04:12:04;;;;;;;5.57;2.13;;;;;;;;;;5075793;28;20431;-67
2024/01/06 04:14:31;;;;;;;9.30;2.20;;;;;;;;;;5093726;28;20426;-67
2024/01/06 04:16:59;;;;;;;3.47;2.30;;;;;;;;;;5076476;28;20439;-67
2024/01/06 04:19:26;;;;;;;5.10;2.30;;;;;;;;;;5075791;28;20461;-67
2024/01/06 04:21:54;;;;;;;6.80;2.73;;;;;;;;;;5075854;28;20431;-67
2024/01/06 04:24:22;;;;;;;6.30;2.40;;;;;;;;;;5059494;28;20420;-67
2024/01/06 04:26:49;;;;;;;3.33;2.20;;;;;;;;;;5093983;28;20482;-67
2024/01/06 04:29:17;;;;;;;5.07;2.53;;;;;;;;;;5058807;28;20526;-67
2024/01/06 04:31:44;;;;;;;4.03;2.40;;;;;;;;;;5093748;28;20415;-67
2024/01/06 04:34:11;;;;;;;5.07;2.37;;;;;;;;;;5075929;28;20439;-67
2024/01/06 04:36:38;;;;;;;4.53;2.33;;;;;;;;;;5093709;28;20426;-67
2024/01/06 04:39:05;;;;;;;3.63;2.10;;;;;;;;;;5093513;28;20425;-67
2024/01/06 04:41:31;;;;;;;8.87;2.33;;;;;;;;;;5093289;28;20430;-67
2024/01/06 04:43:58;;;;;;;4.13;2.07;;;;;;;;;;5075515;28;20459;-67
2024/01/06 04:46:42;;;;;;;4.20;2.03;;;;;;;;;;5093626;28;20395;-67
2024/01/06 04:49:08;;;;;;;6.17;2.47;;;;;;;;;;5075167;28;20467;-67
2024/01/06 04:51:35;;;;;;;4.00;2.30;;;;;;;;;;5093548;28;20443;-67
2024/01/06 04:54:02;;;;;;;3.97;2.30;;;;;;;;;;5075382;28;20431;-67
2024/01/06 04:56:28;;;;;;;3.67;1.80;;;;;;;;;;5093466;28;20554;-67
2024/01/06 04:58:58;;;;;;;3.70;1.90;;;;;;;;;;5093504;28;20887;-67
2024/01/06 05:01:26;;;;;;;3.73;2.03;;;;;;;;;;5093178;28;20423;-67
2024/01/06 05:03:53;;;;;;;3.50;1.80;;;;;;;;;;5093648;28;20462;-67
2024/01/06 05:06:20;;;;;;;3.80;1.90;;;;;;;;;;5093649;28;20474;-67
2024/01/06 05:08:46;;;;;;;2.97;1.10;;;;;;;;;;5093095;28;20474;-67
2024/01/06 05:11:13;;;;;;;0.77;0.70;;;;;;;;;;5075239;28;20780;-67
2024/01/06 05:13:40;;;;;;;2.83;1.10;;;;;;;;;;5092962;28;20415;-67
2024/01/06 05:16:07;;;;;;;2.03;0.53;;;;;;;;;;5096737;28;20472;-67
2024/01/06 05:18:34;;;;;;;1.67;0.80;;;;;;;;;;5062506;28;20438;-67
2024/01/06 05:21:02;;;;;;;2.07;0.60;;;;;;;;;;5062650;28;20451;-67
2024/01/06 05:23:29;;;;;;;2.03;1.20;;;;;;;;;;5096537;28;20960;-67
2024/01/06 05:25:55;;;;;;;4.60;1.70;;;;;;;;;;5078915;28;20438;-67
2024/01/06 05:28:40;;;;;;;4.60;2.43;;;;;;;;;;5081592;28;20735;-67
2024/01/06 05:31:06;;;;;;;5.27;2.40;;;;;;;;;;5078486;28;20435;-67
2024/01/06 05:33:33;;;;;;;4.37;2.07;;;;;;;;;;5078587;28;20771;-67
2024/01/06 05:36:00;;;;;;;7.77;3.73;;;;;;;;;;5097257;28;20427;-67
2024/01/06 05:38:27;;;;;;;10.30;5.27;;;;;;;;;;5096338;28;20779;-67
2024/01/06 05:40:53;;;;;;;7.17;3.90;;;;;;;;;;5096164;28;20793;-67
2024/01/06 05:43:20;;;;;;;3.73;1.87;;;;;;;;;;5097035;28;20470;-67
2024/01/06 05:45:47;;;;;;;2.97;1.40;;;;;;;;;;5096350;28;20411;-67
2024/01/06 05:48:13;;;;;;;4.73;1.87;;;;;;;;;;5078674;28;20436;-67
2024/01/06 05:50:40;;;;;;;4.70;1.73;;;;;;;;;;5096064;28;20832;-67
2024/01/06 05:53:26;;;;;;;4.03;1.87;;;;;;;;;;5096050;28;20537;-67
2024/01/06 05:56:10;;;;;;;3.80;2.10;;;;;;;;;;5096065;28;20391;-67
2024/01/06 05:58:38;;;;;;;3.73;1.40;;;;;;;;;;5061565;28;20467;-67
2024/01/06 06:01:05;;;;;;;2.10;0.90;;;;;;;;;;5078014;28;20439;-67
2024/01/06 06:03:31;;;;;;;2.50;1.20;;;;;;;;;;5096365;28;20960;-67
2024/01/06 06:05:58;;;;;;;2.43;1.30;;;;;;;;;;5077778;28;20471;-67
2024/01/06 06:08:25;;;;;;;2.17;1.30;;;;;;;;;;5095795;28;20416;-67
2024/01/06 06:11:01;;;;;;;1.67;0.90;;;;;;;;;;5061229;28;20426;-67
2024/01/06 06:13:28;;;;;;;2.40;1.07;;;;;;;;;;5096330;28;20432;-67
2024/01/06 06:15:55;;;;;;;5.07;1.67;;;;;;;;;;5077555;28;20527;-67
2024/01/06 06:18:22;;;;;;;4.83;2.17;;;;;;;;;;5095774;28;20902;-67
2024/01/06 06:21:07;;;;;;;2.97;1.53;;;;;;;;;;5080556;28;20572;-67
2024/01/06 06:23:34;;;;;;;2.13;0.90;;;;;;;;;;5077792;28;20451;-67
2024/01/06 06:26:07;;;;;;;2.83;1.00;;;;;;;;;;5076557;28;20431;-67
2024/01/06 06:28:34;;;;;;;1.90;1.10;;;;;;;;;;5061216;28;20423;-67
2024/01/06 06:31:01;;;;;;;2.40;1.00;;;;;;;;;;5077299;28;20542;-67
2024/01/06 06:33:28;;;;;;;1.93;1.17;;;;;;;;;;5060871;28;20442;-67
2024/01/06 06:35:55;;;;;;;3.23;1.30;;;;;;;;;;5078351;28;20439;-67
2024/01/06 06:38:22;;;;;;;3.53;1.60;;;;;;;;;;5077085;28;20506;-67
2024/01/06 06:40:49;;;;;;;4.03;1.60;;;;;;;;;;5077108;28;20415;-67
2024/01/06 06:43:15;;;;;;;3.70;1.70;;;;;;;;;;5094905;28;20471;-67
2024/01/06 06:45:59;;;;;;;3.63;1.80;;;;;;;;;;5094918;28;20485;-67
2024/01/06 06:48:26;;;;;;;3.50;1.33;;;;;;;;;;5095259;28;20415;-67
2024/01/06 06:50:52;;;;;;;3.20;1.40;;;;;;;;;;5095373;28;20427;-67
2024/01/06 06:53:19;;;;;;;3.33;1.50;;;;;;;;;;5095125;28;20498;-67
2024/01/06 06:55:46;;;;;;;4.13;1.67;;;;;;;;;;5076923;28;20451;-67
2024/01/06 06:58:12;;;;;;;2.40;1.50;;;;;;;;;;5094622;28;20416;-67
2024/01/06 07:00:39;;;;;;;2.00;1.37;;;;;;;;;;5077247;28;20419;-67
2024/01/06 07:03:06;;;;;;;2.17;1.20;;;;;;;;;;5094962;28;20459;-67
2024/01/06 07:05:33;;;;;;;2.27;1.30;;;;;;;;;;5077021;28;20428;-67
2024/01/06 07:08:00;;;;;;;2.53;1.50;;;;;;;;;;5060132;28;20468;-67
2024/01/06 07:10:26;;;;;;;3.00;1.40;;;;;;;;;;5093848;28;20775;-72
2024/01/06 07:12:53;;;;;;;3.07;1.60;;;;;;;;;;5059954;28;20434;-68
2024/01/06 07:15:20;;;;;;;2.93;1.67;;;;;;;;;;5095129;28;20431;-68
2024/01/06 07:17:47;;;;;;;4.20;2.10;;;;;;;;;;5076547;28;20813;-75
2024/01/06 07:20:14;;;;;;;1.90;1.50;;;;;;;;;;5060758;28;20440;-73
2024/01/06 07:22:41;;;;;;;2.77;1.70;;;;;;;;;;5059947;28;20497;-73
2024/01/06 07:25:08;;;;;;;3.07;1.67;;;;;;;;;;5076629;28;20467;-72
2024/01/06 07:27:35;;;;;;;2.70;1.57;;;;;;;;;;5094868;28;20786;-74
2024/01/06 07:30:02;;;;;;;3.47;1.70;;;;;;;;;;5060144;28;20434;-71
2024/01/06 07:32:29;;;;;;;4.23;1.90;;;;;;;;;;5076879;28;20427;-75
2024/01/06 07:34:55;;;;;;;4.40;1.90;;;;;;;;;;5059629;28;20435;-73
2024/01/06 07:37:22;;;;;;;4.13;2.40;;;;;;;;;;5075919;28;20431;-73
2024/01/06 07:39:49;;;;;;;4.47;2.10;;;;;;;;;;5043083;28;20463;-72
2024/01/06 07:42:16;;;;;;;6.10;3.00;;;;;;;;;;5076199;28;20419;-74
2024/01/06 07:44:43;;;;;;;7.03;2.90;;;;;;;;;;5076120;28;20509;-73
2024/01/06 07:47:09;;;;;;;6.10;3.00;;;;;;;;;;5076283;28;20428;-73
2024/01/06 07:49:36;;;;;;;4.97;2.40;;;;;;;;;;5076737;28;20447;-75
2024/01/06 07:52:03;;;;;;;3.17;1.70;;;;;;;;;;5093991;28;20488;-73
2024/01/06 07:54:30;;;;;;;2.63;1.60;;;;;;;;;;5059873;28;20517;-73
2024/01/06 07:56:57;;;;;;;3.13;2.00;;;;;;;;;;5059743;28;20431;-75
2024/01/06 07:59:24;;;;;;;3.27;1.73;;;;;;;;;;5059120;28;20853;-73
2024/01/06 08:05:50;;;;;;;4.97;2.13;;;;;;;;;;5093754;28;20407;-73
2024/01/06 08:08:18;;;;;;;5.77;2.60;;;;;;;;;;5093657;28;20431;-69
2024/01/06 08:10:45;;;;;;;4.13;2.37;;;;;;;;;;5093479;28;20411;-68
2024/01/06 08:13:12;;;;;;;3.97;2.20;;;;;;;;;;5058983;28;20435;-69
2024/01/06 08:15:40;;;;;;;3.17;2.00;;;;;;;;;;5076076;28;20894;-70
2024/01/06 08:18:07;;;;;;;5.10;2.47;;;;;;;;;;5076382;28;20466;-74
2024/01/06 08:20:33;;;;;;;6.07;2.70;;;;;;;;;;5043280;28;20432;-74
2024/01/06 08:23:00;;;;;;;4.83;2.60;;;;;;;;;;5076191;28;20459;-74
2024/01/06 08:25:27;;;;;;;5.00;2.83;;;;;;;;;;5076421;28;20608;-69
2024/01/06 08:27:54;;;;;;;9.20;3.80;;;;;;;;;;5093762;28;20790;-69
2024/01/06 08:30:23;;;;;;;9.07;4.00;;;;;;;;;;5075554;28;20435;-69
2024/01/06 08:32:52;;;;;;;8.53;3.93;;;;;;;;;;5075947;28;20430;-74
2024/01/06 08:35:19;;;;;;;11.13;3.93;;;;;;;;;;5075717;28;20433;-69
2024/01/06 08:37:46;;;;;;;5.97;2.50;;;;;;;;;;5093306;28;20843;-69
2024/01/06 08:40:30;;;;;;;4.23;1.90;;;;;;;;;;5075308;28;20746;-69
2024/01/06 08:42:57;;;;;;;6.77;2.20;;;;;;;;;;5075325;28;20914;-68
2024/01/06 08:45:24;;;;;;;18.63;10.20;;;;;;;;;;5093468;28;20430;-68
2024/01/06 08:47:51;;;;;;;4.77;2.80;;;;;;;;;;5094163;28;20423;-68
2024/01/06 08:50:19;;;;;;;7.00;5.77;;;;;;;;;;5060421;28;20498;-68
2024/01/06 08:53:04;;;;;;;4.43;2.67;;;;;;;;;;5068005;28;20402;-68
2024/01/06 08:55:31;;;;;;;5.23;2.87;;;;;;;;;;5062846;28;20901;-68
2024/01/06 08:57:58;;;;;;;5.00;3.10;;;;;;;;;;5079045;28;20572;-69
2024/01/06 09:00:25;;;;;;;6.67;4.70;;;;;;;;;;5097708;28;20462;-68
2024/01/06 09:02:51;;;;;;;15.83;8.43;;;;;;;;;;5079029;28;20435;-68
2024/01/06 09:05:18;;;;;;;14.27;7.03;;;;;;;;;;5097168;28;20411;-68
2024/01/06 09:07:49;;;;;;;3.67;1.90;;;;;;;;;;5097597;28;20431;-68
2024/01/06 09:10:20;;;;;;;2.03;1.67;;;;;;;;;;5079550;28;20414;-68
2024/01/06 09:12:47;;;;;;;3.27;1.70;;;;;;;;;;5079384;28;20472;-68
2024/01/06 09:15:14;;;;;;;3.93;2.40;;;;;;;;;;5078997;28;20439;-68
2024/01/06 09:17:42;;;;;;;46.77;14.13;;;;;;;;;;5062642;28;20758;-68
2024/01/06 09:20:10;;;;;;;103.47;26.00;;;;;;;;;;5096719;28;20431;-69
2024/01/06 09:22:37;;;;;;;11.27;3.93;;;;;;;;;;5079177;28;20411;-68
2024/01/06 09:25:04;;;;;;;11.10;3.37;;;;;;;;;;5097559;28;20481;-68
2024/01/06 09:27:32;;;;;;;110.17;23.17;;;;;;;;;;5097068;28;20490;-68
2024/01/06 09:30:00;;;;;;;26.53;7.10;;;;;;;;;;5078726;28;20423;-69
2024/01/06 09:32:28;;;;;;;17.23;4.03;;;;;;;;;;5078335;28;20440;-68
2024/01/06 09:35:12;;;;;;;12.87;4.70;;;;;;;;;;5096527;28;20402;-68
2024/01/06 09:37:40;;;;;;;9.67;3.53;;;;;;;;;;5062039;28;20522;-68
2024/01/06 09:40:08;;;;;;;4.17;2.07;;;;;;;;;;5096995;28;20442;-68
2024/01/06 09:42:35;;;;;;;25.70;6.57;;;;;;;;;;5045508;28;20902;-68
2024/01/06 09:45:03;;;;;;;9.20;3.20;;;;;;;;;;5062396;28;20454;-68
2024/01/06 09:47:30;;;;;;;5.87;2.70;;;;;;;;;;5078867;28;20533;-68
2024/01/06 09:49:57;;;;;;;2.00;1.07;;;;;;;;;;5078158;28;20455;-68
2024/01/06 09:52:24;;;;;;;2.43;1.00;;;;;;;;;;5078311;28;20537;-68
2024/01/06 09:54:51;;;;;;;6.13;2.90;;;;;;;;;;5077905;28;20477;-68
2024/01/06 09:57:18;;;;;;;10.63;3.67;;;;;;;;;;5061718;28;20427;-68
2024/01/06 09:59:46;;;;;;;8.90;3.20;;;;;;;;;;5061886;28;20530;-70
2024/01/06 10:02:16;;;;;;;8.50;3.53;;;;;;;;;;5061671;28;20449;-69
2024/01/06 10:04:44;;;;;;;5.97;3.03;;;;;;;;;;5061841;28;20451;-69
2024/01/06 10:07:13;;;;;;;3.43;1.40;;;;;;;;;;5061823;28;20416;-68
2024/01/06 10:09:41;;;;;;;4.20;2.00;;;;;;;;;;5061689;28;20434;-68
2024/01/06 10:12:08;;;;;;;2.53;1.67;;;;;;;;;;5096213;28;20458;-68
2024/01/06 10:14:35;;;;;;;6.93;3.57;;;;;;;;;;5077800;28;20922;-68
2024/01/06 10:17:20;;;;;;;3.87;1.10;;;;;;;;;;5080451;28;20920;-68
2024/01/06 10:19:48;;;;;;;2.27;1.00;;;;;;;;;;5061440;28;20486;-69
2024/01/06 10:22:15;;;;;;;1.60;0.83;;;;;;;;;;5096377;28;20462;-69
2024/01/06 10:24:41;;;;;;;5.77;2.90;;;;;;;;;;5044599;28;20463;-69
2024/01/06 10:27:08;;;;;;;2.63;1.97;;;;;;;;;;5078206;28;20455;-68
2024/01/06 10:29:35;;;;;;;1.37;1.00;;;;;;;;;;5060967;28;20435;-68
2024/01/06 10:32:02;;;;;;;10.03;4.87;;;;;;;;;;5095346;28;20419;-69
2024/01/06 10:34:29;;;;;;;2.00;1.10;;;;;;;;;;5077728;28;20449;-68
2024/01/06 10:36:56;;;;;;;5.40;3.23;;;;;;;;;;5095757;28;20477;-68
2024/01/06 10:39:23;;;;;;;1.97;1.00;;;;;;;;;;5061669;28;20488;-68
2024/01/06 10:41:51;;;;;;;3.50;2.13;;;;;;;;;;5103993;27;20521;-74
2024/01/06 10:44:18;;;;;;;1.87;1.17;;;;;;;;;;5081020;28;20478;-74
2024/01/06 10:46:46;;;;;;;3.30;0.93;;;;;;;;;;5098296;28;20438;-73
2024/01/06 10:49:13;;;;;;;9.73;3.77;;;;;;;;;;5057040;28;20845;-70
2024/01/06 10:51:41;;;;;;;7.37;4.20;;;;;;;;;;5060944;28;20526;-70
2024/01/06 10:54:08;;;;;;;5.07;3.27;;;;;;;;;;5060779;28;20431;-73
2024/01/06 10:56:38;;;;;;;1.40;1.20;;;;;;;;;;5061056;28;20497;-69
2024/01/06 10:59:07;;;;;;;2.90;1.80;;;;;;;;;;5075237;28;20495;-69
2024/01/06 11:01:35;;;;;;;6.43;3.60;;;;;;;;;;5040629;28;20917;-69
2024/01/06 11:04:06;;;;;;;2.03;0.90;;;;;;;;;;5040446;28;20500;-69
2024/01/06 11:06:33;;;;;;;3.57;1.77;;;;;;;;;;5057670;28;20427;-69
2024/01/06 11:09:08;;;;;;;3.07;2.10;;;;;;;;;;5057353;28;20788;-69
2024/01/06 11:11:35;;;;;;;4.50;3.30;;;;;;;;;;5040194;28;20440;-69
2024/01/06 11:14:37;;;;;;;30.90;21.20;;;;;;;;;;5056176;28;20416;-69
2024/01/06 11:17:04;;;;;;;11.13;7.23;;;;;;;;;;4957790;28;20468;-69
2024/01/06 11:19:42;;;;;;;8.17;6.50;;;;;;;;;;5020781;28;20440;-69
2024/01/06 11:22:31;;;;;;;10.77;8.13;;;;;;;;;;5057365;28;20428;-69
2024/01/06 11:25:05;;;;;;;10.33;3.33;;;;;;;;;;5040893;28;20466;-69
2024/01/06 11:27:33;;;;;;;34.37;13.77;;;;;;;;;;5074252;28;20836;-69
2024/01/06 11:30:00;;;;;;;4.90;1.87;;;;;;;;;;5040399;28;20413;-70
2024/01/06 11:32:41;;;;;;;4.73;2.70;;;;;;;;;;5057017;28;20524;-70
2024/01/06 11:35:15;;;;;;;5.50;3.27;;;;;;;;;;5041391;28;20421;-70
2024/01/06 11:37:42;;;;;;;5.67;3.20;;;;;;;;;;5039903;28;20444;-70
2024/01/06 11:40:21;;;;;;;30.97;16.57;;;;;;;;;;5039824;28;20460;-70
2024/01/06 11:42:49;;;;;;;6.33;1.70;;;;;;;;;;5073731;28;20524;-70
2024/01/06 11:45:16;;;;;;;4.83;2.87;;;;;;;;;;5039787;28;20475;-69
2024/01/06 11:47:47;;;;;;;9.70;4.43;;;;;;;;;;5053898;28;20432;-71
2024/01/06 11:50:14;;;;;;;9.67;4.53;;;;;;;;;;5071299;28;20443;-72
2024/01/06 11:52:41;;;;;;;177.13;46.57;;;;;;;;;;5050035;28;20431;-73
2024/01/06 11:55:09;;;;;;;102.17;32.03;;;;;;;;;;5065589;28;20509;-74
2024/01/06 11:57:37;;;;;;;28.37;7.57;;;;;;;;;;5032622;28;20443;-74
2024/01/06 12:00:05;;;;;;;13.10;4.93;;;;;;;;;;5066437;28;20442;-74
2024/01/06 12:02:32;;;;;;;9.87;4.03;;;;;;;;;;5066826;28;20442;-74
2024/01/06 12:04:59;;;;;;;62.97;15.03;;;;;;;;;;5066666;28;20478;-74
2024/01/06 12:07:26;;;;;;;86.23;21.93;;;;;;;;;;5049271;28;20440;-73
2024/01/06 12:10:02;;;;;;;71.93;22.33;;;;;;;;;;5066508;28;20445;-73
2024/01/06 12:12:29;;;;;;;20.70;5.63;;;;;;;;;;5058915;28;20419;-73
2024/01/06 12:14:56;;;;;;;50.83;13.23;;;;;;;;;;5049987;28;20460;-73
2024/01/06 12:17:23;;;;;;;19.87;5.40;;;;;;;;;;5066476;28;21838;-76
2024/01/06 12:19:50;;;;;;;46.10;12.03;;;;;;;;;;5050069;28;20427;-74
2024/01/06 12:22:17;;;;;;;39.33;9.93;;;;;;;;;;5041539;28;20467;-74
2024/01/06 12:24:44;;;;;;;44.63;20.40;;;;;;;;;;5068659;28;20810;-74
2024/01/06 12:27:11;;;;;;;44.10;14.83;;;;;;;;;;5054011;28;20458;-73
2024/01/06 12:29:40;;;;;;;29.13;14.87;;;;;;;;;;5070404;28;20435;-71
2024/01/06 12:32:07;;;;;;;46.17;14.30;;;;;;;;;;5070435;28;20426;-71
2024/01/06 12:34:35;;;;;;;24.73;6.37;;;;;;;;;;5088625;28;20502;-71
2024/01/06 12:37:03;;;;;;;55.23;15.10;;;;;;;;;;5070495;28;20431;-70
2024/01/06 12:39:30;;;;;;;52.43;12.30;;;;;;;;;;5088565;28;20436;-70
2024/01/06 12:42:16;;;;;;;54.90;11.23;;;;;;;;;;5073084;28;20407;-71
2024/01/06 12:44:43;;;;;;;79.30;17.37;;;;;;;;;;5070375;28;20487;-71
2024/01/06 12:47:12;;;;;;;38.43;8.77;;;;;;;;;;5088340;28;20750;-71
2024/01/06 12:49:39;;;;;;;10.53;3.70;;;;;;;;;;5070207;28;20468;-73
2024/01/06 12:52:06;;;;;;;40.70;9.80;;;;;;;;;;5059638;28;20840;-75
2024/01/06 12:54:33;;;;;;;83.10;23.30;;;;;;;;;;5069800;28;20435;-74
2024/01/06 12:57:00;;;;;;;109.10;31.03;;;;;;;;;;5070261;28;20412;-71
2024/01/06 12:59:26;;;;;;;127.60;29.13;;;;;;;;;;5069899;28;20427;-71
2024/01/06 13:01:53;;;;;;;29.10;9.10;;;;;;;;;;5069809;28;20430;-72
2024/01/06 13:04:20;;;;;;;34.63;12.13;;;;;;;;;;5053550;28;20459;-72
2024/01/06 13:06:48;;;;;;;39.37;23.87;;;;;;;;;;5069912;28;20530;-71
2024/01/06 13:09:18;;;;;;;17.73;7.20;;;;;;;;;;5053650;28;20802;-72
2024/01/06 13:11:47;;;;;;;11.20;4.87;;;;;;;;;;5053842;28;20442;-72
2024/01/06 13:14:14;;;;;;;12.57;4.70;;;;;;;;;;5053524;28;20441;-73
2024/01/06 13:16:41;;;;;;;15.33;7.90;;;;;;;;;;5053386;28;20419;-72
2024/01/06 13:19:08;;;;;;;8.77;3.30;;;;;;;;;;5053257;28;20423;-71
2024/01/06 13:21:35;;;;;;;4.90;2.73;;;;;;;;;;5069669;28;20980;-72
2024/01/06 13:24:04;;;;;;;4.37;2.07;;;;;;;;;;5036898;28;20434;-72
2024/01/06 13:26:31;;;;;;;7.70;2.53;;;;;;;;;;5053353;28;20451;-72
2024/01/06 13:28:58;;;;;;;5.40;2.03;;;;;;;;;;5052934;28;20790;-72
2024/01/06 13:31:24;;;;;;;6.37;2.10;;;;;;;;;;5052873;28;20530;-73
2024/01/06 13:33:52;;;;;;;3.50;1.73;;;;;;;;;;5069101;28;20420;-73
2024/01/06 13:36:22;;;;;;;8.60;6.00;;;;;;;;;;5068329;28;20772;-72
2024/01/06 13:38:49;;;;;;;1.73;1.20;;;;;;;;;;5052955;28;20555;-74
2024/01/06 13:41:15;;;;;;;3.43;1.30;;;;;;;;;;5052618;28;20419;-74
2024/01/06 13:43:43;;;;;;;4.03;1.33;;;;;;;;;;5069981;28;20427;-74
2024/01/06 13:46:10;;;;;;;3.03;1.73;;;;;;;;;;5077665;28;20459;-75
2024/01/06 13:48:37;;;;;;;1.87;1.00;;;;;;;;;;5061785;28;20438;-76
2024/01/06 13:51:05;;;;;;;2.27;1.40;;;;;;;;;;5078548;28;20408;-77
2024/01/06 13:53:32;;;;;;;3.27;1.50;;;;;;;;;;5078905;28;20427;-78
2024/01/06 13:55:59;;;;;;;2.43;1.70;;;;;;;;;;5045521;28;20532;-77
2024/01/06 13:58:27;;;;;;;4.27;2.60;;;;;;;;;;5061492;28;20428;-71
2024/01/06 14:01:12;;;;;;;6.07;2.77;;;;;;;;;;5081298;28;20392;-77
2024/01/06 14:03:39;;;;;;;3.83;2.83;;;;;;;;;;5061906;28;20432;-74
2024/01/06 14:06:08;;;;;;;4.00;1.17;;;;;;;;;;5094870;28;20471;-72
2024/01/06 14:08:36;;;;;;;1.87;0.97;;;;;;;;;;5062086;28;20782;-75
2024/01/06 14:11:05;;;;;;;3.57;1.30;;;;;;;;;;5061917;28;20427;-69
2024/01/06 14:13:33;;;;;;;2.03;0.90;;;;;;;;;;5062722;28;20493;-73
2024/01/06 14:16:01;;;;;;;6.77;3.73;;;;;;;;;;5095834;28;20805;-73
2024/01/06 14:18:28;;;;;;;4.23;1.27;;;;;;;;;;5070304;28;20427;-74
2024/01/06 14:20:56;;;;;;;16.30;8.30;;;;;;;;;;5077970;28;20796;-70
2024/01/06 14:23:24;;;;;;;11.37;8.57;;;;;;;;;;5078075;28;20823;-71
2024/01/06 14:25:51;;;;;;;4.93;3.20;;;;;;;;;;5078546;28;20463;-71
2024/01/06 14:28:24;;;;;;;3.97;2.13;;;;;;;;;;5095827;28;20447;-73
2024/01/06 14:31:23;;;;;;;3.37;1.70;;;;;;;;;;5082634;28;20462;-73
2024/01/06 14:33:51;;;;;;;4.50;2.13;;;;;;;;;;5060782;28;20466;-72
2024/01/06 14:36:18;;;;;;;4.43;2.60;;;;;;;;;;5095654;28;20447;-73
2024/01/06 14:38:46;;;;;;;5.00;2.90;;;;;;;;;;5060971;28;20423;-71
2024/01/06 14:41:15;;;;;;;4.17;2.27;;;;;;;;;;5045160;28;20443;-72
2024/01/06 14:43:42;;;;;;;4.00;1.80;;;;;;;;;;5095063;28;20420;-70
2024/01/06 14:46:08;;;;;;;4.37;1.90;;;;;;;;;;5076974;28;20566;-76
2024/01/06 14:48:35;;;;;;;4.57;1.80;;;;;;;;;;5093950;28;20420;-72
2024/01/06 14:51:04;;;;;;;3.00;1.90;;;;;;;;;;5095458;28;20443;-72
2024/01/06 14:53:31;;;;;;;2.73;1.90;;;;;;;;;;5077312;28;20438;-73
2024/01/06 14:55:58;;;;;;;3.50;2.20;;;;;;;;;;5060650;28;20423;-72
2024/01/06 14:58:25;;;;;;;7.47;3.10;;;;;;;;;;5094930;28;20933;-73
2024/01/06 15:00:51;;;;;;;7.13;4.47;;;;;;;;;;5076902;28;20411;-74
2024/01/06 15:03:18;;;;;;;4.73;2.70;;;;;;;;;;5077268;28;20866;-74
2024/01/06 15:05:45;;;;;;;5.27;2.30;;;;;;;;;;5094790;28;20452;-73
2024/01/06 15:08:12;;;;;;;3.70;2.10;;;;;;;;;;5076904;28;20456;-75
2024/01/06 15:10:39;;;;;;;3.97;2.17;;;;;;;;;;5077390;28;20907;-74
2024/01/06 15:13:06;;;;;;;6.07;2.10;;;;;;;;;;5095331;28;20424;-74
2024/01/06 15:15:32;;;;;;;4.07;2.20;;;;;;;;;;5077515;28;20557;-69
2024/01/06 15:17:59;;;;;;;3.70;1.60;;;;;;;;;;5076710;28;20940;-77
2024/01/06 15:20:27;;;;;;;2.73;1.20;;;;;;;;;;5076969;28;20434;-77
2024/01/06 15:22:54;;;;;;;2.30;1.50;;;;;;;;;;5077391;28;20431;-73